Time;durP1;ratioP1;P1;durP2;ratioP2;P2;SDS_P1;SDS_P2;PMS_P1;PMS_P2;Temp;Humidity;BMP_temperature;BMP_pressure;BME280_temperature;BME280_humidity;BME280_pressure;Samples;Min_cycle;Max_cycle;Signal;HPM_P1;HPM_P2
2022/09/30 00:02:11;;;;;;;;;;;13.10;67.00;;;;;;5020648;28;19920;-84
2022/09/30 00:04:36;;;;;;;;;;;13.00;67.00;;;;;;5036753;28;19914;-83
2022/09/30 00:07:02;;;;;;;;;;;13.00;67.60;;;;;;5036146;28;19921;-83
2022/09/30 00:09:28;;;;;;;;;;;13.00;67.00;;;;;;5053666;28;19974;-83
2022/09/30 00:11:53;;;;;;;;;;;13.00;67.00;;;;;;5020266;28;20262;-83
2022/09/30 00:14:20;;;;;;;;;;;13.00;67.00;;;;;;5037405;28;19924;-83
2022/09/30 00:16:46;;;;;;;;;;;12.90;67.00;;;;;;5037511;28;19956;-84
2022/09/30 00:19:12;;;;;;;;;;;12.90;67.00;;;;;;5036700;28;19920;-84
2022/09/30 00:21:38;;;;;;;;;;;12.90;67.00;;;;;;5036741;28;20400;-83
2022/09/30 00:24:04;;;;;;;;;;;12.90;67.00;;;;;;5037759;28;19909;-83
2022/09/30 00:26:30;;;;;;;;;;;12.90;67.10;;;;;;5019636;28;19935;-84
2022/09/30 00:28:56;;;;;;;;;;;12.80;67.00;;;;;;5020329;28;20449;-83
2022/09/30 00:31:23;;;;;;;;;;;12.80;67.10;;;;;;5037406;28;20274;-83
2022/09/30 00:34:07;;;;;;;;;;;12.80;67.00;;;;;;5053449;28;19960;-84
2022/09/30 00:36:34;;;;;;;;;;;12.80;67.10;;;;;;5037286;28;20282;-84
2022/09/30 00:39:00;;;;;;;;;;;12.70;67.00;;;;;;5037221;28;20374;-83
2022/09/30 00:41:26;;;;;;;;;;;12.70;67.10;;;;;;5036368;28;19947;-82
2022/09/30 00:43:52;;;;;;;;;;;12.70;67.10;;;;;;5036665;28;19921;-83
2022/09/30 00:46:22;;;;;;;;;;;12.70;67.10;;;;;;5052926;28;20376;-83
2022/09/30 00:48:52;;;;;;;;;;;12.60;67.00;;;;;;5036614;28;19913;-84
2022/09/30 00:51:40;;;;;;;;;;;12.60;67.10;;;;;;5036304;28;19917;-83
2022/09/30 00:54:08;;;;;;;;;;;12.60;67.10;;;;;;5035856;28;19913;-83
2022/09/30 00:56:38;;;;;;;;;;;12.60;67.10;;;;;;5035935;28;19956;-84
2022/09/30 00:59:09;;;;;;;;;;;12.60;67.10;;;;;;5035919;28;19925;-83
2022/09/30 01:01:37;;;;;;;;;;;12.50;67.10;;;;;;5035802;28;19913;-83
2022/09/30 01:04:05;;;;;;;;;;;12.50;67.10;;;;;;5035784;28;19932;-83
2022/09/30 01:06:30;;;;;;;;;;;12.50;67.10;;;;;;5035755;28;19967;-83
2022/09/30 01:08:59;;;;;;;;;;;12.50;67.10;;;;;;5035782;28;19917;-83
2022/09/30 01:11:28;;;;;;;;;;;12.50;67.20;;;;;;5035752;28;19967;-83
2022/09/30 01:13:58;;;;;;;;;;;12.50;67.20;;;;;;5036829;28;19959;-83
2022/09/30 01:16:36;;;;;;;;;;;12.40;67.10;;;;;;5053422;28;19919;-83
2022/09/30 01:19:01;;;;;;;;;;;12.40;67.10;;;;;;5036634;28;20000;-83
2022/09/30 01:21:33;;;;;;;;;;;12.40;67.10;;;;;;5052187;28;19909;-84
2022/09/30 01:23:59;;;;;;;;;;;12.40;67.10;;;;;;5051818;28;20358;-83
2022/09/30 01:26:40;;;;;;;;;;;12.40;67.20;;;;;;5035197;28;19951;-83
2022/09/30 01:29:24;;;;;;;;;;;12.30;67.10;;;;;;5036361;28;19925;-83
2022/09/30 01:32:05;;;;;;;;;;;12.30;67.30;;;;;;5035373;28;19913;-83
2022/09/30 01:34:42;;;;;;;;;;;12.30;67.20;;;;;;5036264;28;20366;-82
2022/09/30 01:37:08;;;;;;;;;;;12.30;67.20;;;;;;5036100;28;19917;-83
2022/09/30 01:39:43;;;;;;;;;;;12.30;67.20;;;;;;5037466;28;19932;-83
2022/09/30 01:42:09;;;;;;;;;;;12.20;67.20;;;;;;5054668;28;19916;-83
2022/09/30 01:44:34;;;;;;;;;;;12.20;67.20;;;;;;5053466;28;19909;-82
2022/09/30 01:47:05;;;;;;;;;;;12.20;67.20;;;;;;5035152;28;19928;-83
2022/09/30 01:49:34;;;;;;;;;;;12.20;67.20;;;;;;5034947;28;19917;-83
2022/09/30 01:52:18;;;;;;;;;;;12.20;67.20;;;;;;5034749;28;19959;-83
2022/09/30 01:54:47;;;;;;;;;;;12.20;67.30;;;;;;5035051;28;19913;-83
2022/09/30 01:57:19;;;;;;;;;;;12.10;67.20;;;;;;5034869;28;19909;-83
2022/09/30 01:59:46;;;;;;;;;;;12.10;67.20;;;;;;5034631;28;20373;-83
2022/09/30 02:02:17;;;;;;;;;;;12.10;67.20;;;;;;5035830;28;19909;-83
2022/09/30 02:04:46;;;;;;;;;;;12.10;67.30;;;;;;5035542;28;19913;-82
2022/09/30 02:07:15;;;;;;;;;;;12.10;67.20;;;;;;5017937;28;19918;-83
2022/09/30 02:09:48;;;;;;;;;;;12.00;67.20;;;;;;5051340;28;19984;-83
2022/09/30 02:12:18;;;;;;;;;;;12.00;67.20;;;;;;5051798;28;19909;-83
2022/09/30 02:14:49;;;;;;;;;;;12.00;67.20;;;;;;5034894;28;19914;-83
2022/09/30 02:17:20;;;;;;;;;;;12.00;67.30;;;;;;5034231;28;20007;-83
2022/09/30 02:20:06;;;;;;;;;;;12.00;67.30;;;;;;5035059;28;19913;-82
2022/09/30 02:22:47;;;;;;;;;;;12.00;67.30;;;;;;5034093;28;19913;-82
2022/09/30 02:25:19;;;;;;;;;;;11.90;67.30;;;;;;5035419;28;20353;-84
2022/09/30 02:27:47;;;;;;;;;;;11.90;67.20;;;;;;5050797;28;20008;-83
2022/09/30 02:30:14;;;;;;;;;;;11.90;67.30;;;;;;5034111;28;20000;-83
2022/09/30 02:32:49;;;;;;;;;;;11.90;67.30;;;;;;5034396;28;19920;-82
2022/09/30 02:35:26;;;;;;;;;;;11.90;67.30;;;;;;5050716;28;19917;-82
2022/09/30 02:37:54;;;;;;;;;;;11.90;67.30;;;;;;5034203;28;20003;-81
2022/09/30 02:40:26;;;;;;;;;;;11.80;67.20;;;;;;5034284;28;20267;-82
2022/09/30 02:42:51;;;;;;;;;;;11.80;67.30;;;;;;5034086;28;19913;-82
2022/09/30 02:45:21;;;;;;;;;;;11.80;67.30;;;;;;5034716;28;19909;-82
2022/09/30 02:48:05;;;;;;;;;;;11.80;67.30;;;;;;5034169;28;20353;-83
2022/09/30 02:50:34;;;;;;;;;;;11.80;67.30;;;;;;5051107;28;19913;-83
2022/09/30 02:53:10;;;;;;;;;;;11.80;67.30;;;;;;5033869;28;19909;-82
2022/09/30 02:55:54;;;;;;;;;;;11.70;67.30;;;;;;5050609;28;19913;-82
2022/09/30 02:58:21;;;;;;;;;;;11.70;67.30;;;;;;5034206;28;20346;-82
2022/09/30 03:00:47;;;;;;;;;;;11.70;67.30;;;;;;5033969;28;19915;-82
2022/09/30 03:03:19;;;;;;;;;;;11.70;67.30;;;;;;5033673;28;19917;-83
2022/09/30 03:05:44;;;;;;;;;;;11.70;67.30;;;;;;5035129;28;20045;-82
2022/09/30 03:08:11;;;;;;;;;;;11.70;67.30;;;;;;5033359;28;19955;-82
2022/09/30 03:10:37;;;;;;;;;;;11.60;67.30;;;;;;5050407;28;19920;-83
2022/09/30 03:13:24;;;;;;;;;;;11.60;67.30;;;;;;5033612;28;19959;-82
2022/09/30 03:15:51;;;;;;;;;;;11.60;67.30;;;;;;5050418;28;19913;-81
2022/09/30 03:18:29;;;;;;;;;;;11.60;67.30;;;;;;5034450;28;20376;-82
2022/09/30 03:21:06;;;;;;;;;;;11.60;67.30;;;;;;5017281;28;19913;-84
2022/09/30 03:23:43;;;;;;;;;;;11.60;67.30;;;;;;5035301;28;19913;-82
2022/09/30 03:26:27;;;;;;;;;;;11.50;67.30;;;;;;5034257;28;19954;-83
2022/09/30 03:28:59;;;;;;;;;;;11.60;67.40;;;;;;5033210;28;19913;-82
2022/09/30 03:31:34;;;;;;;;;;;11.50;67.30;;;;;;5049989;28;19974;-82
2022/09/30 03:34:09;;;;;;;;;;;11.50;67.30;;;;;;5049993;28;19920;-82
2022/09/30 03:36:38;;;;;;;;;;;11.50;67.40;;;;;;5033319;28;19913;-82
2022/09/30 03:39:03;;;;;;;;;;;11.50;67.40;;;;;;5033197;28;19909;-82
2022/09/30 03:41:48;;;;;;;;;;;11.40;67.30;;;;;;5034103;28;19921;-82
2022/09/30 03:44:18;;;;;;;;;;;11.40;67.30;;;;;;5049876;28;20369;-83
2022/09/30 03:46:46;;;;;;;;;;;11.40;67.40;;;;;;5049641;28;20385;-82
2022/09/30 03:49:14;;;;;;;;;;;11.40;67.40;;;;;;5033497;28;19916;-82
2022/09/30 03:51:40;;;;;;;;;;;11.40;67.40;;;;;;5033131;28;19913;-82
2022/09/30 03:54:10;;;;;;;;;;;11.40;67.40;;;;;;5033535;28;19921;-82
2022/09/30 03:56:40;;;;;;;;;;;11.40;67.40;;;;;;5033396;28;20343;-83
2022/09/30 03:59:09;;;;;;;;;;;11.40;67.40;;;;;;5049960;28;20058;-82
2022/09/30 04:01:34;;;;;;;;;;;11.30;67.40;;;;;;5033222;28;19916;-83
2022/09/30 04:04:00;;;;;;;;;;;11.30;67.40;;;;;;5032915;28;20358;-83
2022/09/30 04:06:26;;;;;;;;;;;11.30;67.40;;;;;;5017027;28;19921;-83
2022/09/30 04:08:52;;;;;;;;;;;11.30;67.40;;;;;;5034060;28;19917;-82
2022/09/30 04:11:18;;;;;;;;;;;11.30;67.40;;;;;;5033150;28;20012;-82
2022/09/30 04:13:44;;;;;;;;;;;11.30;67.40;;;;;;5032946;28;20357;-82
2022/09/30 04:16:09;;;;;;;;;;;11.30;67.40;;;;;;5032927;28;19909;-81
2022/09/30 04:18:36;;;;;;;;;;;11.20;67.40;;;;;;5016507;28;19952;-83
2022/09/30 04:21:05;;;;;;;;;;;11.30;67.50;;;;;;5032528;28;19935;-83
2022/09/30 04:23:33;;;;;;;;;;;11.20;67.40;;;;;;5049644;28;19913;-82
2022/09/30 04:25:59;;;;;;;;;;;11.20;67.40;;;;;;5036420;28;19925;-84
2022/09/30 04:28:25;;;;;;;;;;;11.20;67.40;;;;;;5020054;28;19918;-83
2022/09/30 04:30:53;;;;;;;;;;;11.20;67.40;;;;;;5035993;28;19909;-83
2022/09/30 04:33:19;;;;;;;;;;;11.20;67.50;;;;;;5036734;28;19924;-83
2022/09/30 04:35:44;;;;;;;;;;;11.10;67.40;;;;;;5036828;28;19913;-83
2022/09/30 04:38:10;;;;;;;;;;;11.20;67.50;;;;;;5037324;28;19936;-84
2022/09/30 04:40:37;;;;;;;;;;;11.10;67.40;;;;;;5036338;28;20348;-82
2022/09/30 04:43:03;;;;;;;;;;;11.10;67.40;;;;;;5037018;28;20423;-84
2022/09/30 04:45:28;;;;;;;;;;;11.10;67.40;;;;;;5019789;28;19917;-81
2022/09/30 04:47:54;;;;;;;;;;;11.10;67.40;;;;;;5036204;28;19920;-81
2022/09/30 04:50:20;;;;;;;;;;;11.10;67.50;;;;;;5036654;28;19976;-80
2022/09/30 04:52:49;;;;;;;;;;;11.10;68.10;;;;;;5052098;28;19921;-82
2022/09/30 04:55:14;;;;;;;;;;;11.10;67.50;;;;;;5035245;28;19909;-82
2022/09/30 04:57:42;;;;;;;;;;;11.00;67.50;;;;;;5035422;28;20354;-81
2022/09/30 05:00:09;;;;;;;;;;;11.00;67.50;;;;;;5035468;28;19913;-81
2022/09/30 05:02:35;;;;;;;;;;;11.00;67.50;;;;;;5036621;28;19960;-81
2022/09/30 05:05:01;;;;;;;;;;;11.00;67.50;;;;;;5018916;28;19917;-81
2022/09/30 05:07:29;;;;;;;;;;;11.00;68.10;;;;;;5035049;28;19917;-82
2022/09/30 05:09:54;;;;;;;;;;;11.00;67.50;;;;;;5035350;28;19916;-82
2022/09/30 05:12:20;;;;;;;;;;;11.00;67.50;;;;;;5052079;28;19913;-81
2022/09/30 05:14:45;;;;;;;;;;;10.90;67.40;;;;;;5035177;28;19909;-81
2022/09/30 05:17:11;;;;;;;;;;;10.90;67.40;;;;;;5052843;28;19963;-84
2022/09/30 05:19:37;;;;;;;;;;;10.90;67.50;;;;;;5018556;28;19913;-84
2022/09/30 05:22:02;;;;;;;;;;;10.90;67.50;;;;;;5036137;28;19917;-86
2022/09/30 05:24:29;;;;;;;;;;;10.90;67.50;;;;;;5036237;28;19913;-86
2022/09/30 05:26:55;;;;;;;;;;;10.90;67.50;;;;;;5035581;28;20016;-85
2022/09/30 05:29:21;;;;;;;;;;;10.90;67.50;;;;;;5002582;28;19952;-81
2022/09/30 05:31:46;;;;;;;;;;;10.90;67.50;;;;;;5051852;28;19965;-84
2022/09/30 05:34:15;;;;;;;;;;;10.80;67.50;;;;;;5018386;28;19913;-84
2022/09/30 05:36:44;;;;;;;;;;;10.80;67.50;;;;;;5034090;28;19914;-84
2022/09/30 05:39:10;;;;;;;;;;;10.80;67.50;;;;;;5034918;28;19916;-83
2022/09/30 05:41:35;;;;;;;;;;;10.80;67.50;;;;;;5034962;28;19913;-85
2022/09/30 05:44:01;;;;;;;;;;;10.80;67.50;;;;;;5035296;28;19975;-84
2022/09/30 05:46:27;;;;;;;;;;;10.80;67.50;;;;;;5036182;28;19925;-84
2022/09/30 05:48:56;;;;;;;;;;;10.80;67.50;;;;;;5018654;28;19996;-84
2022/09/30 05:51:22;;;;;;;;;;;10.80;67.50;;;;;;5035348;28;19916;-84
2022/09/30 05:53:47;;;;;;;;;;;10.70;67.50;;;;;;5034853;28;19909;-81
2022/09/30 05:56:13;;;;;;;;;;;10.80;67.50;;;;;;5051215;28;19913;-83
2022/09/30 05:58:40;;;;;;;;;;;10.70;67.50;;;;;;5034820;28;19917;-84
2022/09/30 06:01:10;;;;;;;;;;;10.70;67.50;;;;;;5018632;28;19917;-85
2022/09/30 06:03:37;;;;;;;;;;;10.70;67.50;;;;;;5034865;28;19963;-84
2022/09/30 06:06:03;;;;;;;;;;;10.70;67.50;;;;;;5034962;28;19921;-84
2022/09/30 06:08:29;;;;;;;;;;;10.70;67.50;;;;;;5034779;28;20026;-84
2022/09/30 06:10:58;;;;;;;;;;;10.70;67.50;;;;;;5034607;28;19963;-83
2022/09/30 06:13:24;;;;;;;;;;;10.70;67.50;;;;;;5034846;28;19920;-83
2022/09/30 06:16:00;;;;;;;;;;;10.70;67.60;;;;;;5034516;28;20354;-83
2022/09/30 06:18:26;;;;;;;;;;;10.70;67.60;;;;;;5051251;28;19913;-83
2022/09/30 06:21:00;;;;;;;;;;;10.70;67.60;;;;;;5034567;28;20381;-84
2022/09/30 06:23:26;;;;;;;;;;;10.70;67.60;;;;;;5034698;28;19925;-83
2022/09/30 06:25:52;;;;;;;;;;;10.60;67.50;;;;;;5017678;28;19925;-84
2022/09/30 06:28:18;;;;;;;;;;;10.60;67.60;;;;;;5034674;28;20027;-83
2022/09/30 06:30:44;;;;;;;;;;;10.60;67.60;;;;;;5034247;28;19952;-81
2022/09/30 06:33:11;;;;;;;;;;;10.60;67.60;;;;;;5034326;28;19963;-83
2022/09/30 06:35:36;;;;;;;;;;;10.60;67.60;;;;;;5034017;28;19916;-81
2022/09/30 06:38:02;;;;;;;;;;;10.60;67.60;;;;;;5034087;28;19996;-84
2022/09/30 06:40:28;;;;;;;;;;;10.60;67.60;;;;;;5035039;28;19928;-84
2022/09/30 06:42:58;;;;;;;;;;;10.60;67.60;;;;;;5050527;28;19913;-83
2022/09/30 06:45:24;;;;;;;;;;;10.60;67.60;;;;;;5034107;28;20349;-83
2022/09/30 06:47:50;;;;;;;;;;;10.60;67.70;;;;;;5033627;28;19993;-85
2022/09/30 06:50:16;;;;;;;;;;;10.60;67.70;;;;;;5033881;28;19913;-83
2022/09/30 06:52:42;;;;;;;;;;;10.60;67.70;;;;;;5017763;28;19913;-84
2022/09/30 06:55:08;;;;;;;;;;;10.60;67.70;;;;;;5017333;28;19975;-84
2022/09/30 06:57:34;;;;;;;;;;;10.60;67.70;;;;;;5017811;28;20011;-84
2022/09/30 07:00:00;;;;;;;;;;;10.60;67.70;;;;;;5034041;28;19913;-84
2022/09/30 07:02:27;;;;;;;;;;;10.60;67.70;;;;;;5033745;28;20383;-84
2022/09/30 07:04:53;;;;;;;;;;;10.60;67.70;;;;;;5033750;28;19913;-84
2022/09/30 07:07:21;;;;;;;;;;;10.60;67.70;;;;;;5018127;28;19927;-83
2022/09/30 07:09:46;;;;;;;;;;;10.60;67.80;;;;;;5018330;28;20250;-83
2022/09/30 07:12:12;;;;;;;;;;;10.60;67.80;;;;;;5033953;28;19909;-85
2022/09/30 07:14:37;;;;;;;;;;;10.60;67.80;;;;;;5033831;28;20286;-85
2022/09/30 07:17:04;;;;;;;;;;;10.60;67.80;;;;;;5035075;28;20015;-83
2022/09/30 07:19:33;;;;;;;;;;;10.60;67.80;;;;;;5034218;28;19914;-84
2022/09/30 07:22:26;;;;;;;;;;;10.60;67.80;;;;;;5018199;28;20027;-84
2022/09/30 07:24:44;;;;;;;;;;;10.60;67.80;;;;;;5033371;28;19939;-84
2022/09/30 07:27:12;;;;;;;;;;;10.60;67.80;;;;;;5033469;28;20427;-84
2022/09/30 07:29:41;;;;;;;;;;;10.60;67.80;;;;;;5035011;28;19923;-85
2022/09/30 07:32:07;;;;;;;;;;;10.60;67.80;;;;;;5034025;28;19921;-84
2022/09/30 07:34:34;;;;;;;;;;;10.60;67.80;;;;;;5033884;28;19996;-84
2022/09/30 07:37:00;;;;;;;;;;;10.60;67.90;;;;;;5034195;28;20059;-84
2022/09/30 07:39:25;;;;;;;;;;;10.60;67.90;;;;;;5034108;28;19920;-84
2022/09/30 07:41:52;;;;;;;;;;;10.60;67.80;;;;;;5034793;28;19913;-83
2022/09/30 07:44:18;;;;;;;;;;;10.70;68.00;;;;;;5017869;28;20003;-83
2022/09/30 07:46:44;;;;;;;;;;;10.70;67.90;;;;;;5017750;28;19932;-84
2022/09/30 07:49:12;;;;;;;;;;;10.70;67.90;;;;;;5033602;28;19909;-84
2022/09/30 07:51:39;;;;;;;;;;;10.70;67.90;;;;;;5034093;28;19964;-83
2022/09/30 07:54:06;;;;;;;;;;;10.70;67.90;;;;;;5033710;28;19910;-84
2022/09/30 07:56:32;;;;;;;;;;;10.70;67.90;;;;;;5033126;28;19943;-83
2022/09/30 07:59:00;;;;;;;;;;;10.70;67.90;;;;;;5034681;28;19913;-84
2022/09/30 08:01:26;;;;;;;;;;;10.70;67.90;;;;;;5037151;28;19913;-84
2022/09/30 08:03:56;;;;;;;;;;;10.80;68.00;;;;;;5020892;28;19920;-84
2022/09/30 08:06:22;;;;;;;;;;;10.70;67.90;;;;;;5036946;28;19922;-84
2022/09/30 08:08:49;;;;;;;;;;;10.80;68.00;;;;;;5020821;28;19913;-84
2022/09/30 08:11:15;;;;;;;;;;;10.80;68.00;;;;;;5037370;28;19920;-85
2022/09/30 08:13:41;;;;;;;;;;;10.80;68.00;;;;;;5037488;28;19910;-84
2022/09/30 08:16:06;;;;;;;;;;;10.80;68.00;;;;;;5020524;28;19921;-85
2022/09/30 08:18:34;;;;;;;;;;;10.80;68.00;;;;;;5037208;28;19918;-86
2022/09/30 08:21:05;;;;;;;;;;;10.80;68.00;;;;;;5020391;28;19917;-85
2022/09/30 08:23:31;;;;;;;;;;;10.90;68.10;;;;;;5037841;28;19913;-85
2022/09/30 08:26:07;;;;;;;;;;;10.90;68.10;;;;;;5036238;28;19921;-85
2022/09/30 08:28:33;;;;;;;;;;;10.90;68.20;;;;;;5036679;28;19913;-85
2022/09/30 08:31:06;;;;;;;;;;;10.90;68.20;;;;;;5020608;28;19920;-84
2022/09/30 08:33:32;;;;;;;;;;;10.90;68.20;;;;;;5037342;28;19917;-83
2022/09/30 08:36:05;;;;;;;;;;;10.90;68.20;;;;;;5037015;28;20468;-84
2022/09/30 08:38:30;;;;;;;;;;;11.00;68.30;;;;;;5036485;28;20016;-85
2022/09/30 08:41:11;;;;;;;;;;;11.00;68.30;;;;;;5020045;28;19949;-84
2022/09/30 08:43:43;;;;;;;;;;;11.00;68.30;;;;;;5037019;28;20316;-85
2022/09/30 08:46:13;;;;;;;;;;;11.10;68.30;;;;;;5053043;28;19925;-84
2022/09/30 08:48:39;;;;;;;;;;;11.10;68.40;;;;;;5053336;28;20007;-85
2022/09/30 08:51:08;;;;;;;;;;;11.10;68.30;;;;;;5053299;28;19982;-84
2022/09/30 08:53:36;;;;;;;;;;;11.20;68.40;;;;;;5052836;28;19914;-86
2022/09/30 08:56:03;;;;;;;;;;;11.20;69.00;;;;;;5019747;28;19909;-85
2022/09/30 08:58:31;;;;;;;;;;;11.20;68.30;;;;;;5037207;28;20420;-85
2022/09/30 09:01:12;;;;;;;;;;;11.30;68.30;;;;;;5036202;28;19964;-85
2022/09/30 09:03:39;;;;;;;;;;;11.30;68.30;;;;;;5036121;28;19968;-84
2022/09/30 09:06:17;;;;;;;;;;;11.40;68.30;;;;;;5019793;28;20015;-86
2022/09/30 09:08:48;;;;;;;;;;;11.40;68.30;;;;;;5036133;28;19948;-86
2022/09/30 09:11:23;;;;;;;;;;;11.50;68.30;;;;;;5052225;28;20023;-87
2022/09/30 09:13:52;;;;;;;;;;;11.50;68.20;;;;;;5036968;28;19919;-86
2022/09/30 09:16:31;;;;;;;;;;;11.60;68.20;;;;;;5036039;28;19913;-87
2022/09/30 09:19:00;;;;;;;;;;;11.60;68.10;;;;;;5036127;28;19960;-88
2022/09/30 09:21:37;;;;;;;;;;;11.80;68.10;;;;;;5036973;28;19916;-90
2022/09/30 09:24:04;;;;;;;;;;;11.80;68.00;;;;;;5035943;28;20423;-86
2022/09/30 09:26:33;;;;;;;;;;;11.90;68.60;;;;;;5037276;28;19963;-90
2022/09/30 09:29:07;;;;;;;;;;;11.90;67.90;;;;;;5036561;28;19963;-83
2022/09/30 09:31:33;;;;;;;;;;;12.00;67.90;;;;;;5037231;28;19913;-91
2022/09/30 09:34:00;;;;;;;;;;;12.10;67.80;;;;;;5018973;28;19917;-90
2022/09/30 09:36:35;;;;;;;;;;;12.20;67.80;;;;;;5035755;28;19999;-90
2022/09/30 09:39:00;;;;;;;;;;;12.30;67.80;;;;;;5035468;28;19913;-91
2022/09/30 09:41:45;;;;;;;;;;;12.30;67.70;;;;;;5035176;28;19916;-88
2022/09/30 09:44:34;;;;;;;;;;;12.40;67.70;;;;;;5052082;28;19916;-90
2022/09/30 09:47:04;;;;;;;;;;;12.50;67.70;;;;;;5026895;28;19921;-92
2022/09/30 09:49:34;;;;;;;;;;;12.60;67.70;;;;;;5035368;28;19920;-92
2022/09/30 09:52:11;;;;;;;;;;;12.70;67.70;;;;;;5036860;28;19996;-89
2022/09/30 09:54:41;;;;;;;;;;;12.80;67.80;;;;;;5052092;28;20011;-89
2022/09/30 09:57:10;;;;;;;;;;;12.90;67.80;;;;;;5035015;28;19913;-88
2022/09/30 09:59:37;;;;;;;;;;;13.00;67.80;;;;;;5035172;28;19913;-92
2022/09/30 10:02:20;;;;;;;;;;;13.10;67.80;;;;;;5035608;28;20353;-92
2022/09/30 10:04:50;;;;;;;;;;;13.20;67.80;;;;;;5052307;28;19920;-88
2022/09/30 10:07:19;;;;;;;;;;;13.30;67.90;;;;;;5034910;28;20392;-86
2022/09/30 10:09:44;;;;;;;;;;;13.40;67.90;;;;;;5034550;28;19971;-84
2022/09/30 10:12:10;;;;;;;;;;;13.50;68.00;;;;;;5035516;28;20344;-86
2022/09/30 10:14:44;;;;;;;;;;;13.60;68.00;;;;;;5051742;28;20273;-86
2022/09/30 10:17:18;;;;;;;;;;;13.70;68.10;;;;;;5034901;28;20380;-85
2022/09/30 10:19:49;;;;;;;;;;;13.80;68.00;;;;;;5034401;28;19913;-84
2022/09/30 10:22:16;;;;;;;;;;;13.90;68.10;;;;;;5034531;28;20008;-90
2022/09/30 10:24:42;;;;;;;;;;;14.00;68.20;;;;;;5034368;28;19909;-83
2022/09/30 10:27:27;;;;;;;;;;;14.10;68.20;;;;;;5033840;28;19924;-82
2022/09/30 10:29:52;;;;;;;;;;;14.10;68.20;;;;;;5051410;28;19920;-83
2022/09/30 10:32:18;;;;;;;;;;;14.30;68.30;;;;;;5033684;28;19909;-86
2022/09/30 10:34:44;;;;;;;;;;;14.30;68.30;;;;;;5034298;28;19936;-86
2022/09/30 10:37:10;;;;;;;;;;;14.50;68.40;;;;;;5034628;28;20334;-86
2022/09/30 10:39:37;;;;;;;;;;;14.50;68.40;;;;;;5034925;28;20358;-86
2022/09/30 10:42:08;;;;;;;;;;;14.60;68.50;;;;;;5034897;28;19920;-84
2022/09/30 10:44:41;;;;;;;;;;;14.70;68.50;;;;;;5035513;28;19959;-85
2022/09/30 10:47:08;;;;;;;;;;;14.80;68.60;;;;;;5034695;28;19921;-84
2022/09/30 10:49:51;;;;;;;;;;;14.90;68.70;;;;;;5018120;28;19920;-85
2022/09/30 10:52:25;;;;;;;;;;;14.90;68.80;;;;;;5035334;28;19966;-86
2022/09/30 10:54:52;;;;;;;;;;;15.00;69.00;;;;;;5034276;28;19913;-86
2022/09/30 10:57:30;;;;;;;;;;;15.10;69.20;;;;;;5034543;28;19945;-86
2022/09/30 11:00:01;;;;;;;;;;;15.10;69.30;;;;;;5051208;28;19913;-85
2022/09/30 11:02:36;;;;;;;;;;;15.20;69.50;;;;;;5033648;28;20004;-84
2022/09/30 11:05:02;;;;;;;;;;;15.20;69.60;;;;;;5034152;28;19913;-83
2022/09/30 11:07:30;;;;;;;;;;;15.30;69.80;;;;;;5033891;28;19976;-85
2022/09/30 11:10:06;;;;;;;;;;;15.30;70.00;;;;;;5033982;28;20384;-86
2022/09/30 11:12:48;;;;;;;;;;;15.40;70.20;;;;;;5034115;28;19996;-83
2022/09/30 11:15:17;;;;;;;;;;;15.50;70.30;;;;;;5034595;28;19913;-85
2022/09/30 11:17:49;;;;;;;;;;;15.50;70.50;;;;;;5033724;28;19995;-86
2022/09/30 11:20:18;;;;;;;;;;;15.60;70.70;;;;;;5033764;28;19913;-86
2022/09/30 11:22:50;;;;;;;;;;;15.60;70.80;;;;;;5033791;28;19967;-85
2022/09/30 11:25:21;;;;;;;;;;;15.60;71.00;;;;;;5033754;28;20275;-84
2022/09/30 11:27:49;;;;;;;;;;;15.70;71.20;;;;;;5033745;28;19928;-84
2022/09/30 11:30:18;;;;;;;;;;;15.80;71.30;;;;;;5033332;28;19909;-85
2022/09/30 11:32:46;;;;;;;;;;;15.80;71.40;;;;;;5050518;28;20000;-84
2022/09/30 11:35:22;;;;;;;;;;;15.80;71.50;;;;;;5036990;28;19956;-84
2022/09/30 11:38:03;;;;;;;;;;;15.80;71.60;;;;;;5037991;28;20361;-85
2022/09/30 11:40:28;;;;;;;;;;;15.90;71.70;;;;;;5054098;28;19925;-84
2022/09/30 11:43:07;;;;;;;;;;;15.90;71.70;;;;;;5037355;28;19909;-83
2022/09/30 11:45:33;;;;;;;;;;;15.90;71.80;;;;;;5038301;28;19920;-84
2022/09/30 11:48:11;;;;;;;;;;;16.00;71.90;;;;;;5053640;28;19917;-85
2022/09/30 11:50:36;;;;;;;;;;;16.00;71.90;;;;;;5053728;28;20019;-84
2022/09/30 11:53:21;;;;;;;;;;;16.00;72.00;;;;;;5038723;28;20409;-84
2022/09/30 11:55:53;;;;;;;;;;;16.10;72.00;;;;;;5053927;28;19975;-85
2022/09/30 11:58:21;;;;;;;;;;;16.10;72.00;;;;;;5053823;28;19913;-85
2022/09/30 12:00:50;;;;;;;;;;;16.10;72.00;;;;;;5037791;28;19909;-84
2022/09/30 12:03:28;;;;;;;;;;;16.20;72.00;;;;;;5053484;28;19909;-85
2022/09/30 12:05:56;;;;;;;;;;;16.20;72.00;;;;;;5036598;28;19913;-84
2022/09/30 12:08:27;;;;;;;;;;;16.20;71.90;;;;;;5036870;28;19916;-84
2022/09/30 12:10:55;;;;;;;;;;;16.20;71.90;;;;;;5037989;28;19913;-83
2022/09/30 12:13:53;;;;;;;;;;;16.30;72.00;;;;;;5037012;28;19909;-84
2022/09/30 12:16:21;;;;;;;;;;;16.30;71.90;;;;;;4988003;28;20031;-84
2022/09/30 12:18:52;;;;;;;;;;;16.30;71.90;;;;;;5036852;28;19914;-84
2022/09/30 12:21:24;;;;;;;;;;;16.40;71.90;;;;;;5020457;28;19920;-85
2022/09/30 12:23:56;;;;;;;;;;;16.40;71.90;;;;;;5037594;28;19999;-85
2022/09/30 12:26:22;;;;;;;;;;;16.40;71.80;;;;;;5036648;28;20070;-82
2022/09/30 12:31:44;;;;;;;;;;;16.40;71.80;;;;;;5054147;28;19977;-84
2022/09/30 12:34:13;;;;;;;;;;;16.50;71.80;;;;;;5053355;28;19913;-84
2022/09/30 12:36:42;;;;;;;;;;;16.50;71.70;;;;;;5052959;28;20400;-85
2022/09/30 12:39:28;;;;;;;;;;;16.50;71.70;;;;;;5053558;28;19913;-83
2022/09/30 12:42:00;;;;;;;;;;;16.60;71.70;;;;;;5018623;28;19913;-83
2022/09/30 12:44:48;;;;;;;;;;;16.60;71.70;;;;;;5051923;28;19959;-84
2022/09/30 12:47:26;;;;;;;;;;;16.60;71.70;;;;;;5036936;28;19925;-83
2022/09/30 12:49:53;;;;;;;;;;;16.70;71.70;;;;;;5052706;28;19913;-84
2022/09/30 12:52:20;;;;;;;;;;;16.70;71.70;;;;;;5037049;28;19916;-83
2022/09/30 12:54:50;;;;;;;;;;;16.70;71.60;;;;;;5036159;28;19913;-84
2022/09/30 12:57:19;;;;;;;;;;;16.70;71.60;;;;;;5036151;28;20385;-84
2022/09/30 12:59:50;;;;;;;;;;;16.70;71.50;;;;;;5035865;28;19921;-82
2022/09/30 13:02:35;;;;;;;;;;;16.80;71.50;;;;;;5036101;28;19913;-85
2022/09/30 13:05:19;;;;;;;;;;;16.80;71.50;;;;;;5036152;28;20000;-84
2022/09/30 13:08:14;;;;;;;;;;;16.80;71.50;;;;;;5035843;28;19925;-83
2022/09/30 13:10:51;;;;;;;;;;;16.80;71.40;;;;;;4984160;28;19921;-84
2022/09/30 13:13:23;;;;;;;;;;;16.90;71.40;;;;;;5036078;28;19959;-83
2022/09/30 13:15:55;;;;;;;;;;;16.90;71.40;;;;;;5035624;28;19913;-86
2022/09/30 13:18:25;;;;;;;;;;;16.90;71.30;;;;;;5052078;28;20014;-82
2022/09/30 13:20:56;;;;;;;;;;;16.90;71.30;;;;;;5036485;28;20303;-85
2022/09/30 13:23:44;;;;;;;;;;;17.00;71.30;;;;;;5035784;28;19913;-84
2022/09/30 13:26:31;;;;;;;;;;;17.00;71.20;;;;;;5011215;28;19925;-84
2022/09/30 13:29:00;;;;;;;;;;;17.00;71.20;;;;;;5036251;28;20376;-84
2022/09/30 13:31:30;;;;;;;;;;;17.00;71.10;;;;;;5035772;28;20318;-84
2022/09/30 13:34:02;;;;;;;;;;;17.10;71.10;;;;;;5036241;28;19913;-84
2022/09/30 13:36:38;;;;;;;;;;;17.10;71.10;;;;;;5037447;28;19917;-84
2022/09/30 13:39:16;;;;;;;;;;;17.10;71.00;;;;;;5038017;28;19913;-84
2022/09/30 13:41:42;;;;;;;;;;;17.20;71.00;;;;;;5053266;28;19913;-84
2022/09/30 13:44:20;;;;;;;;;;;17.20;71.00;;;;;;5038819;28;19948;-84
2022/09/30 13:46:51;;;;;;;;;;;17.20;70.90;;;;;;5037718;28;20385;-84
2022/09/30 13:49:35;;;;;;;;;;;17.20;70.90;;;;;;5036320;28;19913;-85
2022/09/30 13:52:01;;;;;;;;;;;17.20;70.80;;;;;;5036955;28;19919;-84
2022/09/30 13:54:34;;;;;;;;;;;17.20;70.80;;;;;;5037098;28;20339;-85
2022/09/30 13:57:01;;;;;;;;;;;17.30;70.80;;;;;;5034723;28;20350;-84
2022/09/30 13:59:49;;;;;;;;;;;17.30;70.70;;;;;;5035864;28;19910;-84
2022/09/30 14:02:18;;;;;;;;;;;17.30;70.70;;;;;;5026756;28;19996;-85
2022/09/30 14:04:47;;;;;;;;;;;17.30;70.60;;;;;;5035543;28;19956;-83
2022/09/30 14:07:18;;;;;;;;;;;17.30;70.60;;;;;;5035861;28;19928;-84
2022/09/30 14:09:56;;;;;;;;;;;17.40;70.60;;;;;;5035193;28;19963;-84
2022/09/30 14:12:25;;;;;;;;;;;17.40;70.60;;;;;;5034736;28;19920;-84
2022/09/30 14:14:59;;;;;;;;;;;17.40;70.50;;;;;;5052774;28;19909;-84
2022/09/30 14:17:31;;;;;;;;;;;17.40;70.40;;;;;;5051816;28;20362;-84
2022/09/30 14:20:15;;;;;;;;;;;17.40;70.40;;;;;;5034785;28;19914;-84
2022/09/30 14:22:41;;;;;;;;;;;17.50;70.40;;;;;;5035242;28;19979;-84
2022/09/30 14:25:17;;;;;;;;;;;17.50;70.40;;;;;;5034307;28;20357;-85
2022/09/30 14:27:46;;;;;;;;;;;17.50;70.40;;;;;;5034373;28;19928;-85
2022/09/30 14:30:35;;;;;;;;;;;17.50;70.30;;;;;;5034328;28;19953;-83
2022/09/30 14:33:03;;;;;;;;;;;17.60;70.40;;;;;;5025985;28;19939;-83
2022/09/30 14:35:30;;;;;;;;;;;17.60;70.30;;;;;;5034003;28;20294;-84
2022/09/30 14:38:04;;;;;;;;;;;17.60;70.30;;;;;;5034217;28;20066;-84